createdAt,value
2018-06-23T00:00:54.938Z,12.80
2018-06-23T00:03:23.426Z,12.90
2018-06-23T00:05:51.984Z,12.90
2018-06-23T00:08:20.476Z,12.90
2018-06-23T00:10:49.052Z,12.80
2018-06-23T00:13:17.531Z,12.70
2018-06-23T00:15:46.144Z,12.70
2018-06-23T00:18:14.633Z,12.40
2018-06-23T00:20:43.242Z,12.40
2018-06-23T00:24:40.923Z,12.30
2018-06-23T00:27:09.407Z,12.10
2018-06-23T00:29:37.936Z,12.10
2018-06-23T00:32:06.382Z,12.30
2018-06-23T00:34:34.837Z,12.30
2018-06-23T00:37:03.286Z,12.50
2018-06-23T00:39:31.780Z,12.50
2018-06-23T00:42:00.987Z,12.40
2018-06-23T00:44:29.471Z,12.20
2018-06-23T00:46:57.935Z,12.20
2018-06-23T00:49:26.626Z,12.20
2018-06-23T00:51:55.091Z,12.20
2018-06-23T00:54:23.648Z,12.20
2018-06-23T00:56:52.131Z,12.10
2018-06-23T00:59:31.842Z,12.10
2018-06-23T01:02:00.412Z,12.10
2018-06-23T01:04:28.927Z,12.10
2018-06-23T01:06:57.436Z,12.10
2018-06-23T01:09:25.990Z,11.90
2018-06-23T01:11:54.476Z,11.90
2018-06-23T01:14:22.935Z,12.00
2018-06-23T01:16:51.429Z,12.00
2018-06-23T01:19:19.890Z,12.00
2018-06-23T01:21:48.428Z,11.80
2018-06-23T01:24:16.903Z,11.70
2018-06-23T01:26:45.370Z,11.70
2018-06-23T01:29:13.819Z,11.60
2018-06-23T01:31:42.301Z,11.60
2018-06-23T01:34:10.758Z,11.70
2018-06-23T01:36:39.575Z,11.70
2018-06-23T01:39:10.186Z,11.70
2018-06-23T01:41:38.720Z,11.70
2018-06-23T01:44:07.277Z,11.70
2018-06-23T01:46:35.768Z,11.60
2018-06-23T01:49:04.528Z,11.60
2018-06-23T01:51:33.107Z,11.60
2018-06-23T01:54:01.563Z,11.60
2018-06-23T01:56:30.081Z,11.60
2018-06-23T01:58:58.553Z,11.60
2018-06-23T02:01:27.024Z,11.70
2018-06-23T02:03:56.202Z,11.60
2018-06-23T02:06:24.683Z,11.60
2018-06-23T02:08:53.230Z,11.70
2018-06-23T02:11:21.806Z,11.70
2018-06-23T02:13:54.466Z,11.70
2018-06-23T02:19:01.967Z,11.40
2018-06-23T02:21:35.698Z,11.50
2018-06-23T02:24:10.224Z,11.50
2018-06-23T02:26:44.242Z,11.40
2018-06-23T02:29:18.141Z,11.40
2018-06-23T02:31:51.963Z,11.40
2018-06-23T02:34:25.915Z,11.40
2018-06-23T02:36:54.450Z,11.30
2018-06-23T02:39:22.903Z,11.30
2018-06-23T02:41:51.410Z,11.30
2018-06-23T02:44:19.920Z,11.40
2018-06-23T02:46:48.511Z,11.40
2018-06-23T02:49:17.034Z,11.40
2018-06-23T02:51:45.510Z,11.20
2018-06-23T02:54:13.997Z,11.20
2018-06-23T02:56:42.583Z,11.20
2018-06-23T02:59:11.059Z,11.30
2018-06-23T03:01:39.524Z,11.20
2018-06-23T03:04:08.071Z,11.20
2018-06-23T03:09:06.658Z,11.20
2018-06-23T03:11:35.175Z,11.10
2018-06-23T03:14:03.789Z,11.20
2018-06-23T03:16:32.485Z,11.10
2018-06-23T03:19:01.008Z,11.10
2018-06-23T03:21:29.467Z,11.10
2018-06-23T03:23:58.024Z,11.20
2018-06-23T03:26:26.531Z,11.20
2018-06-23T03:28:54.992Z,11.10
2018-06-23T03:31:23.478Z,11.10
2018-06-23T03:33:52.052Z,11.10
2018-06-23T03:36:20.556Z,11.10
2018-06-23T03:38:49.220Z,11.10
2018-06-23T03:41:17.692Z,11.10
2018-06-23T03:43:46.239Z,11.00
2018-06-23T03:46:14.696Z,11.10
2018-06-23T03:48:43.204Z,11.10
2018-06-23T03:51:11.699Z,11.10
2018-06-23T03:53:40.242Z,11.00
2018-06-23T03:56:08.861Z,11.10
2018-06-23T03:58:37.332Z,11.10
2018-06-23T04:01:07.362Z,11.00
2018-06-23T04:03:36.299Z,11.00
2018-06-23T04:06:04.882Z,10.90
2018-06-23T04:08:34.016Z,10.90
2018-06-23T04:11:02.864Z,10.90
2018-06-23T04:13:31.587Z,10.90
2018-06-23T04:16:00.311Z,10.90
2018-06-23T04:18:28.879Z,11.00
2018-06-23T04:20:57.334Z,11.00
2018-06-23T04:23:25.893Z,11.10
2018-06-23T04:25:54.438Z,11.30
2018-06-23T04:28:22.942Z,11.30
2018-06-23T04:33:19.612Z,11.50
2018-06-23T04:35:48.169Z,11.40
2018-06-23T04:38:16.791Z,11.60
2018-06-23T04:40:45.246Z,11.70
2018-06-23T04:43:13.731Z,11.80
2018-06-23T04:45:42.254Z,11.80
2018-06-23T04:48:10.740Z,11.80
2018-06-23T04:50:39.250Z,11.80
2018-06-23T04:53:07.745Z,11.80
2018-06-23T04:55:36.214Z,11.80
2018-06-23T04:58:04.860Z,11.70
2018-06-23T05:00:33.388Z,11.80
2018-06-23T05:03:01.862Z,11.70
2018-06-23T05:05:30.339Z,11.80
2018-06-23T05:07:58.838Z,11.70
2018-06-23T05:10:27.352Z,11.80
2018-06-23T05:12:55.864Z,11.80
2018-06-23T05:15:24.427Z,11.90
2018-06-23T05:20:21.272Z,12.00
2018-06-23T05:22:49.715Z,12.10
2018-06-23T05:25:18.202Z,12.20
2018-06-23T05:27:46.672Z,12.20
2018-06-23T05:30:15.203Z,12.30
2018-06-23T05:32:43.690Z,12.40
2018-06-23T05:35:12.238Z,12.40
2018-06-23T05:37:41.018Z,12.50
2018-06-23T05:40:09.477Z,12.50
2018-06-23T05:42:38.055Z,12.50
2018-06-23T05:45:06.531Z,12.60
2018-06-23T05:47:35.088Z,12.60
2018-06-23T05:50:03.671Z,12.70
2018-06-23T05:52:32.202Z,12.80
2018-06-23T05:55:00.681Z,12.70
2018-06-23T05:57:29.150Z,12.70
2018-06-23T05:59:57.626Z,12.70
2018-06-23T06:04:54.435Z,12.90
2018-06-23T06:09:51.077Z,13.00
2018-06-23T06:12:19.576Z,13.20
2018-06-23T06:14:48.079Z,13.30
2018-06-23T06:17:30.342Z,13.30
2018-06-23T06:20:02.030Z,13.40
2018-06-23T06:25:01.066Z,13.30
2018-06-23T06:27:30.191Z,13.30
2018-06-23T06:29:59.302Z,13.30
2018-06-23T06:32:28.359Z,13.40
2018-06-23T06:34:57.192Z,13.70
2018-06-23T06:39:53.894Z,14.00
2018-06-23T06:42:22.530Z,14.20
2018-06-23T06:44:51.046Z,14.40
2018-06-23T06:47:20.247Z,14.40
2018-06-23T06:49:48.803Z,14.60
2018-06-23T06:54:45.818Z,14.90
2018-06-23T06:57:14.369Z,14.90
2018-06-23T06:59:42.878Z,14.90
2018-06-23T07:02:11.373Z,14.90
2018-06-23T07:04:39.989Z,15.00
2018-06-23T07:07:08.434Z,15.10
2018-06-23T07:09:37.004Z,15.00
2018-06-23T07:12:05.502Z,15.20
2018-06-23T07:14:33.969Z,15.40
2018-06-23T07:17:02.506Z,15.40
2018-06-23T07:21:59.229Z,15.80
2018-06-23T07:24:27.734Z,15.80
2018-06-23T07:26:56.360Z,15.90
2018-06-23T07:29:24.839Z,15.90
2018-06-23T07:31:53.399Z,16.00
2018-06-23T07:34:21.995Z,16.00
2018-06-23T07:36:50.597Z,16.00
2018-06-23T07:41:47.375Z,16.00
2018-06-23T07:46:44.034Z,15.60
2018-06-23T07:49:12.602Z,15.70
2018-06-23T07:51:41.073Z,16.00
2018-06-23T07:56:41.782Z,16.40
2018-06-23T09:29:04.961Z,17.80
2018-06-23T09:31:33.955Z,17.90
2018-06-23T09:36:31.437Z,17.90
2018-06-23T09:39:00.075Z,18.20
2018-06-23T09:43:57.069Z,18.40
2018-06-23T09:48:54.290Z,18.20
2018-06-23T09:51:23.011Z,18.10
2018-06-23T09:56:20.590Z,18.10
2018-06-23T09:58:49.239Z,18.10
2018-06-23T10:01:17.859Z,18.20
2018-06-23T10:03:46.478Z,18.10
2018-06-23T10:08:43.593Z,18.00
2018-06-23T10:11:12.253Z,18.00
2018-06-23T10:13:40.953Z,17.90
2018-06-23T10:16:09.621Z,18.00
2018-06-23T10:18:38.324Z,18.00
2018-06-23T10:23:35.311Z,18.10
2018-06-23T10:26:03.997Z,18.20
2018-06-23T10:28:33.106Z,18.40
2018-06-23T10:35:58.352Z,18.80
2018-06-23T10:40:55.298Z,18.90
2018-06-23T10:43:23.940Z,19.10
2018-06-23T10:45:52.559Z,19.30
2018-06-23T10:48:21.272Z,19.50
2018-06-23T10:50:49.886Z,19.70
2018-06-23T10:53:18.775Z,19.60
2018-06-23T10:55:47.417Z,19.60
2018-06-23T10:58:16.067Z,19.30
2018-06-23T11:00:44.773Z,19.10
2018-06-23T11:03:13.419Z,19.10
2018-06-23T11:05:42.029Z,19.20
2018-06-23T11:08:10.656Z,19.30
2018-06-23T11:10:39.287Z,19.30
2018-06-23T11:13:07.946Z,19.40
2018-06-23T11:18:04.936Z,20.30
2018-06-23T11:23:02.063Z,20.20
2018-06-23T11:25:30.847Z,20.00
2018-06-23T11:27:59.500Z,19.80
2018-06-23T11:32:56.491Z,20.10
2018-06-23T11:35:25.142Z,20.40
2018-06-23T11:42:50.755Z,21.00
2018-06-23T11:47:47.777Z,21.50
2018-06-23T11:50:16.527Z,21.70
2018-06-23T19:47:21.471Z,19.40
2018-06-23T19:49:50.457Z,19.40
2018-06-23T19:57:15.896Z,19.40
2018-06-23T20:02:13.019Z,19.10
2018-06-23T20:14:35.067Z,19.00
2018-06-23T20:17:03.852Z,18.90
2018-06-23T20:22:01.030Z,18.70
2018-06-23T20:24:29.790Z,18.70
2018-06-23T20:34:23.809Z,18.70
2018-06-23T20:39:20.861Z,18.60
2018-06-23T20:44:17.884Z,18.50
2018-06-23T20:51:43.478Z,18.50
2018-06-23T20:54:12.181Z,18.40
2018-06-23T21:01:37.823Z,18.40
2018-06-23T21:09:03.487Z,18.30
2018-06-23T21:11:32.240Z,18.20
2018-06-23T21:16:29.449Z,18.10
2018-06-23T21:18:58.162Z,18.00
2018-06-23T21:21:26.866Z,18.00
2018-06-23T21:26:24.108Z,17.90
2018-06-23T21:33:49.463Z,17.70
2018-06-23T21:36:18.247Z,17.70
2018-06-23T21:41:15.191Z,17.70
2018-06-23T21:46:12.243Z,17.70
2018-06-23T21:48:40.974Z,17.60
2018-06-23T21:51:09.749Z,17.60
2018-06-23T21:53:38.488Z,17.50
2018-06-23T22:03:32.205Z,17.40
2018-06-23T22:06:00.911Z,17.40
2018-06-23T22:08:29.611Z,17.40
2018-06-23T22:10:58.316Z,17.30
2018-06-23T22:15:55.375Z,17.30
2018-06-23T22:18:24.164Z,17.30
2018-06-23T22:20:52.873Z,17.20
2018-06-23T22:23:21.589Z,17.20
2018-06-23T22:35:43.721Z,17.10
2018-06-23T22:38:12.539Z,17.00
2018-06-23T22:40:41.238Z,16.90
2018-06-23T22:43:09.876Z,16.80
2018-06-23T22:55:32.083Z,16.40
2018-06-23T23:00:29.075Z,16.50
2018-06-23T23:02:57.755Z,16.40
2018-06-23T23:05:26.439Z,16.30
2018-06-23T23:07:55.157Z,15.90
2018-06-23T23:10:23.903Z,15.90
2018-06-23T23:15:20.955Z,15.80
2018-06-23T23:20:18.041Z,15.80
2018-06-23T23:22:46.786Z,15.70
2018-06-23T23:25:15.471Z,15.60
2018-06-23T23:27:44.158Z,15.60
2018-06-23T23:30:12.917Z,15.50
2018-06-23T23:32:41.788Z,15.40
2018-06-23T23:35:10.449Z,15.50
2018-06-23T23:37:39.216Z,15.50
2018-06-23T23:45:04.772Z,15.50
2018-06-23T23:47:33.523Z,15.50
2018-06-23T23:50:02.244Z,15.40
2018-06-23T23:52:30.975Z,15.30
2018-06-23T23:54:59.661Z,15.30
2018-06-23T23:59:56.715Z,15.20
